sensor_id;sensor_type;location;lat;lon;timestamp;temperature;humidity
25616;DHT22;13482;48.234;13.006;2024-02-26T00:01:32;5.30;66.20
25616;DHT22;13482;48.234;13.006;2024-02-26T00:04:00;5.30;66.20
25616;DHT22;13482;48.234;13.006;2024-02-26T00:06:30;5.20;66.20
25616;DHT22;13482;48.234;13.006;2024-02-26T00:08:58;5.20;66.10
25616;DHT22;13482;48.234;13.006;2024-02-26T00:11:26;5.20;66.20
25616;DHT22;13482;48.234;13.006;2024-02-26T00:13:53;5.20;66.20
25616;DHT22;13482;48.234;13.006;2024-02-26T00:16:21;5.10;66.20
25616;DHT22;13482;48.234;13.006;2024-02-26T00:18:48;5.10;66.10
25616;DHT22;13482;48.234;13.006;2024-02-26T00:21:16;5.10;66.00
25616;DHT22;13482;48.234;13.006;2024-02-26T00:23:44;5.00;66.00
25616;DHT22;13482;48.234;13.006;2024-02-26T00:26:11;5.00;66.30
25616;DHT22;13482;48.234;13.006;2024-02-26T00:28:39;5.00;66.50
25616;DHT22;13482;48.234;13.006;2024-02-26T00:31:06;4.90;66.70
25616;DHT22;13482;48.234;13.006;2024-02-26T00:33:33;4.90;67.00
25616;DHT22;13482;48.234;13.006;2024-02-26T00:36:01;4.90;67.10
25616;DHT22;13482;48.234;13.006;2024-02-26T00:38:29;4.90;67.30
25616;DHT22;13482;48.234;13.006;2024-02-26T00:40:56;4.90;67.40
25616;DHT22;13482;48.234;13.006;2024-02-26T00:43:23;4.90;67.50
25616;DHT22;13482;48.234;13.006;2024-02-26T00:45:51;4.90;67.60
25616;DHT22;13482;48.234;13.006;2024-02-26T00:48:19;4.90;67.70
25616;DHT22;13482;48.234;13.006;2024-02-26T00:50:47;4.90;67.80
25616;DHT22;13482;48.234;13.006;2024-02-26T00:53:14;4.90;68.00
25616;DHT22;13482;48.234;13.006;2024-02-26T00:55:42;5.00;68.10
25616;DHT22;13482;48.234;13.006;2024-02-26T00:58:09;5.00;68.30
25616;DHT22;13482;48.234;13.006;2024-02-26T01:00:37;5.00;68.40
25616;DHT22;13482;48.234;13.006;2024-02-26T01:03:05;5.00;68.30
25616;DHT22;13482;48.234;13.006;2024-02-26T01:05:32;5.00;68.40
25616;DHT22;13482;48.234;13.006;2024-02-26T01:08:00;5.00;68.60
25616;DHT22;13482;48.234;13.006;2024-02-26T01:10:27;5.10;68.70
25616;DHT22;13482;48.234;13.006;2024-02-26T01:12:55;5.10;68.60
25616;DHT22;13482;48.234;13.006;2024-02-26T01:15:22;5.10;68.50
25616;DHT22;13482;48.234;13.006;2024-02-26T01:17:51;5.10;68.60
25616;DHT22;13482;48.234;13.006;2024-02-26T01:20:18;5.10;68.80
25616;DHT22;13482;48.234;13.006;2024-02-26T01:22:46;5.10;68.90
25616;DHT22;13482;48.234;13.006;2024-02-26T01:25:14;5.10;68.70
25616;DHT22;13482;48.234;13.006;2024-02-26T01:27:42;5.20;68.60
25616;DHT22;13482;48.234;13.006;2024-02-26T01:30:11;5.20;68.50
25616;DHT22;13482;48.234;13.006;2024-02-26T01:32:39;5.20;68.40
25616;DHT22;13482;48.234;13.006;2024-02-26T01:35:06;5.20;68.20
25616;DHT22;13482;48.234;13.006;2024-02-26T01:37:37;5.20;68.10
25616;DHT22;13482;48.234;13.006;2024-02-26T01:40:06;5.20;68.00
25616;DHT22;13482;48.234;13.006;2024-02-26T01:42:38;5.10;67.90
25616;DHT22;13482;48.234;13.006;2024-02-26T01:45:07;5.10;68.00
25616;DHT22;13482;48.234;13.006;2024-02-26T01:47:51;5.10;68.00
25616;DHT22;13482;48.234;13.006;2024-02-26T01:50:20;5.10;67.80
25616;DHT22;13482;48.234;13.006;2024-02-26T01:52:52;5.10;67.80
25616;DHT22;13482;48.234;13.006;2024-02-26T01:55:23;5.10;67.60
25616;DHT22;13482;48.234;13.006;2024-02-26T01:57:52;5.00;67.50
25616;DHT22;13482;48.234;13.006;2024-02-26T02:00:20;5.00;67.50
25616;DHT22;13482;48.234;13.006;2024-02-26T02:02:49;5.00;67.50
25616;DHT22;13482;48.234;13.006;2024-02-26T02:05:17;4.90;67.50
25616;DHT22;13482;48.234;13.006;2024-02-26T02:07:45;4.90;67.50
25616;DHT22;13482;48.234;13.006;2024-02-26T02:10:14;4.90;67.50
25616;DHT22;13482;48.234;13.006;2024-02-26T02:12:43;4.80;67.40
25616;DHT22;13482;48.234;13.006;2024-02-26T02:15:11;4.80;67.30
25616;DHT22;13482;48.234;13.006;2024-02-26T02:17:39;4.80;67.20
25616;DHT22;13482;48.234;13.006;2024-02-26T02:20:34;4.70;67.20
25616;DHT22;13482;48.234;13.006;2024-02-26T02:23:03;4.70;67.30
25616;DHT22;13482;48.234;13.006;2024-02-26T02:25:30;4.60;67.00
25616;DHT22;13482;48.234;13.006;2024-02-26T02:27:58;4.60;67.00
25616;DHT22;13482;48.234;13.006;2024-02-26T02:30:29;4.50;67.10
25616;DHT22;13482;48.234;13.006;2024-02-26T02:32:58;4.50;67.10
25616;DHT22;13482;48.234;13.006;2024-02-26T02:35:26;4.40;67.10
25616;DHT22;13482;48.234;13.006;2024-02-26T02:37:55;4.40;67.20
25616;DHT22;13482;48.234;13.006;2024-02-26T02:40:24;4.30;67.10
25616;DHT22;13482;48.234;13.006;2024-02-26T02:42:51;4.30;67.00
25616;DHT22;13482;48.234;13.006;2024-02-26T02:45:19;4.20;67.00
25616;DHT22;13482;48.234;13.006;2024-02-26T02:47:46;4.20;67.00
25616;DHT22;13482;48.234;13.006;2024-02-26T02:50:14;4.10;67.20
25616;DHT22;13482;48.234;13.006;2024-02-26T02:52:41;4.10;67.10
25616;DHT22;13482;48.234;13.006;2024-02-26T02:55:09;4.10;67.30
25616;DHT22;13482;48.234;13.006;2024-02-26T02:57:37;4.00;67.40
25616;DHT22;13482;48.234;13.006;2024-02-26T03:00:09;4.00;67.50
25616;DHT22;13482;48.234;13.006;2024-02-26T03:02:37;4.00;67.50
25616;DHT22;13482;48.234;13.006;2024-02-26T03:05:05;3.90;67.50
25616;DHT22;13482;48.234;13.006;2024-02-26T03:07:33;3.90;67.50
25616;DHT22;13482;48.234;13.006;2024-02-26T03:10:00;3.90;67.50
25616;DHT22;13482;48.234;13.006;2024-02-26T03:12:28;3.90;67.50
25616;DHT22;13482;48.234;13.006;2024-02-26T03:14:57;3.90;67.50
25616;DHT22;13482;48.234;13.006;2024-02-26T03:17:24;3.80;67.50
25616;DHT22;13482;48.234;13.006;2024-02-26T03:19:52;3.80;67.50
25616;DHT22;13482;48.234;13.006;2024-02-26T03:22:21;3.80;67.40
25616;DHT22;13482;48.234;13.006;2024-02-26T03:24:48;3.80;67.30
25616;DHT22;13482;48.234;13.006;2024-02-26T03:27:16;3.80;67.40
25616;DHT22;13482;48.234;13.006;2024-02-26T03:29:43;3.70;67.40
25616;DHT22;13482;48.234;13.006;2024-02-26T03:32:11;3.70;67.40
25616;DHT22;13482;48.234;13.006;2024-02-26T03:34:38;3.70;67.30
25616;DHT22;13482;48.234;13.006;2024-02-26T03:37:09;3.70;67.40
25616;DHT22;13482;48.234;13.006;2024-02-26T03:39:37;3.70;67.40
25616;DHT22;13482;48.234;13.006;2024-02-26T03:42:06;3.60;67.40
25616;DHT22;13482;48.234;13.006;2024-02-26T03:44:33;3.60;67.40
25616;DHT22;13482;48.234;13.006;2024-02-26T03:47:01;3.60;67.40
25616;DHT22;13482;48.234;13.006;2024-02-26T03:49:28;3.60;67.40
25616;DHT22;13482;48.234;13.006;2024-02-26T03:51:56;3.50;67.50
25616;DHT22;13482;48.234;13.006;2024-02-26T03:54:23;3.50;67.60
25616;DHT22;13482;48.234;13.006;2024-02-26T03:56:51;3.50;67.70
25616;DHT22;13482;48.234;13.006;2024-02-26T03:59:18;3.50;67.60
25616;DHT22;13482;48.234;13.006;2024-02-26T04:01:46;3.40;67.50
25616;DHT22;13482;48.234;13.006;2024-02-26T04:04:16;3.40;67.60
25616;DHT22;13482;48.234;13.006;2024-02-26T04:06:47;3.40;67.60
25616;DHT22;13482;48.234;13.006;2024-02-26T04:09:15;3.40;67.70
25616;DHT22;13482;48.234;13.006;2024-02-26T04:11:43;3.40;67.80
25616;DHT22;13482;48.234;13.006;2024-02-26T04:14:10;3.40;67.80
25616;DHT22;13482;48.234;13.006;2024-02-26T04:16:39;3.30;67.80
25616;DHT22;13482;48.234;13.006;2024-02-26T04:19:07;3.30;67.80
25616;DHT22;13482;48.234;13.006;2024-02-26T04:21:35;3.30;67.90
25616;DHT22;13482;48.234;13.006;2024-02-26T04:24:02;3.30;68.00
25616;DHT22;13482;48.234;13.006;2024-02-26T04:26:30;3.20;68.10
25616;DHT22;13482;48.234;13.006;2024-02-26T04:28:58;3.20;68.00
25616;DHT22;13482;48.234;13.006;2024-02-26T04:31:25;3.20;67.80
25616;DHT22;13482;48.234;13.006;2024-02-26T04:33:53;3.20;67.70
25616;DHT22;13482;48.234;13.006;2024-02-26T04:36:21;3.20;67.60
25616;DHT22;13482;48.234;13.006;2024-02-26T04:38:49;3.10;67.60
25616;DHT22;13482;48.234;13.006;2024-02-26T04:41:16;3.10;67.50
25616;DHT22;13482;48.234;13.006;2024-02-26T04:43:44;3.10;67.50
25616;DHT22;13482;48.234;13.006;2024-02-26T04:46:11;3.10;67.50
25616;DHT22;13482;48.234;13.006;2024-02-26T04:48:39;3.00;67.60
25616;DHT22;13482;48.234;13.006;2024-02-26T04:51:09;3.00;67.60
25616;DHT22;13482;48.234;13.006;2024-02-26T04:53:36;3.00;67.60
25616;DHT22;13482;48.234;13.006;2024-02-26T04:56:04;3.00;67.70
25616;DHT22;13482;48.234;13.006;2024-02-26T04:58:32;3.00;67.70
25616;DHT22;13482;48.234;13.006;2024-02-26T05:00:59;3.00;67.60
25616;DHT22;13482;48.234;13.006;2024-02-26T05:03:26;2.90;67.70
25616;DHT22;13482;48.234;13.006;2024-02-26T05:05:54;2.90;67.70
25616;DHT22;13482;48.234;13.006;2024-02-26T05:08:24;2.90;67.80
25616;DHT22;13482;48.234;13.006;2024-02-26T05:10:51;2.90;67.90
25616;DHT22;13482;48.234;13.006;2024-02-26T05:13:19;2.80;67.70
25616;DHT22;13482;48.234;13.006;2024-02-26T05:15:46;2.80;67.80
25616;DHT22;13482;48.234;13.006;2024-02-26T05:18:16;2.80;67.90
25616;DHT22;13482;48.234;13.006;2024-02-26T05:20:43;2.80;67.80
25616;DHT22;13482;48.234;13.006;2024-02-26T05:23:11;2.80;67.70
25616;DHT22;13482;48.234;13.006;2024-02-26T05:25:38;2.70;67.70
25616;DHT22;13482;48.234;13.006;2024-02-26T05:28:06;2.70;67.80
25616;DHT22;13482;48.234;13.006;2024-02-26T05:30:33;2.70;67.70
25616;DHT22;13482;48.234;13.006;2024-02-26T05:33:01;2.70;67.80
25616;DHT22;13482;48.234;13.006;2024-02-26T05:35:29;2.60;68.00
25616;DHT22;13482;48.234;13.006;2024-02-26T05:37:56;2.60;68.00
25616;DHT22;13482;48.234;13.006;2024-02-26T05:40:24;2.60;68.00
25616;DHT22;13482;48.234;13.006;2024-02-26T05:42:51;2.60;68.00
25616;DHT22;13482;48.234;13.006;2024-02-26T05:45:18;2.60;68.00
25616;DHT22;13482;48.234;13.006;2024-02-26T05:47:46;2.50;68.00
25616;DHT22;13482;48.234;13.006;2024-02-26T05:50:14;2.50;67.90
25616;DHT22;13482;48.234;13.006;2024-02-26T05:52:42;2.50;67.90
25616;DHT22;13482;48.234;13.006;2024-02-26T05:55:10;2.50;68.00
25616;DHT22;13482;48.234;13.006;2024-02-26T05:57:37;2.50;68.10
25616;DHT22;13482;48.234;13.006;2024-02-26T06:00:06;2.50;68.00
25616;DHT22;13482;48.234;13.006;2024-02-26T06:02:35;2.50;68.00
25616;DHT22;13482;48.234;13.006;2024-02-26T06:05:02;2.50;68.00
25616;DHT22;13482;48.234;13.006;2024-02-26T06:07:30;2.50;68.10
25616;DHT22;13482;48.234;13.006;2024-02-26T06:09:57;2.40;68.10
25616;DHT22;13482;48.234;13.006;2024-02-26T06:12:24;2.40;68.30
25616;DHT22;13482;48.234;13.006;2024-02-26T06:14:53;2.50;68.30
25616;DHT22;13482;48.234;13.006;2024-02-26T06:17:21;2.50;68.30
25616;DHT22;13482;48.234;13.006;2024-02-26T06:19:48;2.50;68.30
25616;DHT22;13482;48.234;13.006;2024-02-26T06:22:15;2.50;68.30
25616;DHT22;13482;48.234;13.006;2024-02-26T06:24:43;2.50;68.30
25616;DHT22;13482;48.234;13.006;2024-02-26T06:27:10;2.50;68.40
25616;DHT22;13482;48.234;13.006;2024-02-26T06:29:38;2.50;68.40
25616;DHT22;13482;48.234;13.006;2024-02-26T06:32:07;2.50;68.50
25616;DHT22;13482;48.234;13.006;2024-02-26T06:34:38;2.60;68.60
25616;DHT22;13482;48.234;13.006;2024-02-26T06:37:08;2.60;68.70
25616;DHT22;13482;48.234;13.006;2024-02-26T06:39:35;2.60;68.70
25616;DHT22;13482;48.234;13.006;2024-02-26T06:42:03;2.70;68.90
25616;DHT22;13482;48.234;13.006;2024-02-26T06:44:31;2.70;69.00
25616;DHT22;13482;48.234;13.006;2024-02-26T06:47:01;2.80;69.00
25616;DHT22;13482;48.234;13.006;2024-02-26T06:49:29;2.80;69.20
25616;DHT22;13482;48.234;13.006;2024-02-26T06:51:56;2.90;69.10
25616;DHT22;13482;48.234;13.006;2024-02-26T06:54:24;2.90;69.20
25616;DHT22;13482;48.234;13.006;2024-02-26T06:56:51;3.00;69.30
25616;DHT22;13482;48.234;13.006;2024-02-26T06:59:18;3.00;69.40
25616;DHT22;13482;48.234;13.006;2024-02-26T07:01:47;3.10;69.50
25616;DHT22;13482;48.234;13.006;2024-02-26T07:04:14;3.20;69.70
25616;DHT22;13482;48.234;13.006;2024-02-26T07:06:42;3.30;69.80
25616;DHT22;13482;48.234;13.006;2024-02-26T07:09:10;3.30;69.70
25616;DHT22;13482;48.234;13.006;2024-02-26T07:11:40;3.40;69.80
25616;DHT22;13482;48.234;13.006;2024-02-26T07:14:12;3.50;69.80
25616;DHT22;13482;48.234;13.006;2024-02-26T07:16:39;3.50;69.90
25616;DHT22;13482;48.234;13.006;2024-02-26T07:19:07;3.60;69.90
25616;DHT22;13482;48.234;13.006;2024-02-26T07:21:35;3.70;70.10
25616;DHT22;13482;48.234;13.006;2024-02-26T07:24:02;3.70;70.20
25616;DHT22;13482;48.234;13.006;2024-02-26T07:26:30;3.80;70.40
25616;DHT22;13482;48.234;13.006;2024-02-26T07:28:57;3.90;70.60
25616;DHT22;13482;48.234;13.006;2024-02-26T07:31:25;4.00;70.60
25616;DHT22;13482;48.234;13.006;2024-02-26T07:33:53;4.10;70.60
25616;DHT22;13482;48.234;13.006;2024-02-26T07:36:20;4.20;70.70
25616;DHT22;13482;48.234;13.006;2024-02-26T07:38:48;4.30;70.70
25616;DHT22;13482;48.234;13.006;2024-02-26T07:41:16;4.40;70.80
25616;DHT22;13482;48.234;13.006;2024-02-26T07:43:43;4.50;70.80
25616;DHT22;13482;48.234;13.006;2024-02-26T07:46:14;4.60;70.80
25616;DHT22;13482;48.234;13.006;2024-02-26T07:48:42;4.80;70.80
25616;DHT22;13482;48.234;13.006;2024-02-26T07:51:12;4.90;70.80
25616;DHT22;13482;48.234;13.006;2024-02-26T07:53:41;5.00;70.80
25616;DHT22;13482;48.234;13.006;2024-02-26T07:56:09;5.00;70.80
25616;DHT22;13482;48.234;13.006;2024-02-26T07:58:37;5.10;70.80
25616;DHT22;13482;48.234;13.006;2024-02-26T08:01:04;5.20;70.80
25616;DHT22;13482;48.234;13.006;2024-02-26T08:03:31;5.30;70.70
25616;DHT22;13482;48.234;13.006;2024-02-26T08:05:59;5.40;70.90
25616;DHT22;13482;48.234;13.006;2024-02-26T08:08:27;5.50;70.90
25616;DHT22;13482;48.234;13.006;2024-02-26T08:10:54;5.60;70.90
25616;DHT22;13482;48.234;13.006;2024-02-26T08:13:21;5.70;70.90
25616;DHT22;13482;48.234;13.006;2024-02-26T08:15:49;5.70;71.00
25616;DHT22;13482;48.234;13.006;2024-02-26T08:18:17;5.90;71.10
25616;DHT22;13482;48.234;13.006;2024-02-26T08:20:45;6.00;71.30
25616;DHT22;13482;48.234;13.006;2024-02-26T08:23:13;6.10;71.50
25616;DHT22;13482;48.234;13.006;2024-02-26T08:25:40;6.20;71.30
25616;DHT22;13482;48.234;13.006;2024-02-26T08:28:07;6.30;71.30
25616;DHT22;13482;48.234;13.006;2024-02-26T08:30:35;6.40;71.20
25616;DHT22;13482;48.234;13.006;2024-02-26T08:33:02;6.50;71.20
25616;DHT22;13482;48.234;13.006;2024-02-26T08:35:30;6.60;71.20
25616;DHT22;13482;48.234;13.006;2024-02-26T08:37:57;6.70;71.30
25616;DHT22;13482;48.234;13.006;2024-02-26T08:40:25;6.80;71.30
25616;DHT22;13482;48.234;13.006;2024-02-26T08:42:52;7.00;71.30
25616;DHT22;13482;48.234;13.006;2024-02-26T08:45:20;7.10;71.40
25616;DHT22;13482;48.234;13.006;2024-02-26T08:47:47;7.20;71.50
25616;DHT22;13482;48.234;13.006;2024-02-26T08:50:15;7.30;71.50
25616;DHT22;13482;48.234;13.006;2024-02-26T08:52:43;7.40;71.50
25616;DHT22;13482;48.234;13.006;2024-02-26T08:55:11;7.60;71.30
25616;DHT22;13482;48.234;13.006;2024-02-26T08:57:40;7.70;71.40
25616;DHT22;13482;48.234;13.006;2024-02-26T09:00:08;7.80;71.30
25616;DHT22;13482;48.234;13.006;2024-02-26T09:02:36;7.90;71.30
25616;DHT22;13482;48.234;13.006;2024-02-26T09:05:06;8.10;71.30
25616;DHT22;13482;48.234;13.006;2024-02-26T09:07:33;8.20;71.20
25616;DHT22;13482;48.234;13.006;2024-02-26T09:10:01;8.30;71.00
25616;DHT22;13482;48.234;13.006;2024-02-26T09:12:28;8.40;70.90
25616;DHT22;13482;48.234;13.006;2024-02-26T09:14:55;8.50;70.80
25616;DHT22;13482;48.234;13.006;2024-02-26T09:17:24;8.60;70.80
25616;DHT22;13482;48.234;13.006;2024-02-26T09:19:52;8.70;70.90
25616;DHT22;13482;48.234;13.006;2024-02-26T09:22:19;8.90;70.90
25616;DHT22;13482;48.234;13.006;2024-02-26T09:24:46;9.00;71.10
25616;DHT22;13482;48.234;13.006;2024-02-26T09:27:14;9.20;71.20
25616;DHT22;13482;48.234;13.006;2024-02-26T09:29:41;9.30;71.30
25616;DHT22;13482;48.234;13.006;2024-02-26T09:32:09;9.50;71.30
25616;DHT22;13482;48.234;13.006;2024-02-26T09:34:36;9.70;71.00
25616;DHT22;13482;48.234;13.006;2024-02-26T09:37:03;9.90;70.90
25616;DHT22;13482;48.234;13.006;2024-02-26T09:39:44;10.10;70.90
25616;DHT22;13482;48.234;13.006;2024-02-26T09:42:13;10.30;70.90
25616;DHT22;13482;48.234;13.006;2024-02-26T09:44:41;10.40;70.90
25616;DHT22;13482;48.234;13.006;2024-02-26T09:47:11;10.60;70.80
25616;DHT22;13482;48.234;13.006;2024-02-26T09:49:48;10.80;70.40
25616;DHT22;13482;48.234;13.006;2024-02-26T09:52:17;11.00;70.10
25616;DHT22;13482;48.234;13.006;2024-02-26T09:54:47;11.10;70.00
25616;DHT22;13482;48.234;13.006;2024-02-26T09:57:16;11.30;69.80
25616;DHT22;13482;48.234;13.006;2024-02-26T09:59:46;11.40;69.60
25616;DHT22;13482;48.234;13.006;2024-02-26T10:02:18;11.50;69.30
25616;DHT22;13482;48.234;13.006;2024-02-26T10:04:47;11.60;69.20
25616;DHT22;13482;48.234;13.006;2024-02-26T10:07:18;11.70;69.10
25616;DHT22;13482;48.234;13.006;2024-02-26T10:09:46;11.80;68.90
25616;DHT22;13482;48.234;13.006;2024-02-26T10:12:14;11.90;68.80
25616;DHT22;13482;48.234;13.006;2024-02-26T10:14:44;12.00;68.80
25616;DHT22;13482;48.234;13.006;2024-02-26T10:17:12;12.10;68.80
25616;DHT22;13482;48.234;13.006;2024-02-26T10:19:39;12.20;68.70
25616;DHT22;13482;48.234;13.006;2024-02-26T10:22:07;12.30;68.60
25616;DHT22;13482;48.234;13.006;2024-02-26T10:24:35;12.30;68.50
25616;DHT22;13482;48.234;13.006;2024-02-26T10:27:03;12.40;68.30
25616;DHT22;13482;48.234;13.006;2024-02-26T10:29:32;12.50;68.10
25616;DHT22;13482;48.234;13.006;2024-02-26T10:31:59;12.60;68.00
25616;DHT22;13482;48.234;13.006;2024-02-26T10:34:28;12.70;67.80
25616;DHT22;13482;48.234;13.006;2024-02-26T10:36:56;12.70;67.60
25616;DHT22;13482;48.234;13.006;2024-02-26T10:39:23;12.80;67.50
25616;DHT22;13482;48.234;13.006;2024-02-26T10:41:51;12.80;67.50
25616;DHT22;13482;48.234;13.006;2024-02-26T10:44:18;12.90;67.40
25616;DHT22;13482;48.234;13.006;2024-02-26T10:46:49;12.90;67.30
25616;DHT22;13482;48.234;13.006;2024-02-26T10:49:17;13.00;67.20
25616;DHT22;13482;48.234;13.006;2024-02-26T10:51:54;13.00;67.20
25616;DHT22;13482;48.234;13.006;2024-02-26T10:54:27;13.10;67.10
25616;DHT22;13482;48.234;13.006;2024-02-26T10:56:57;13.10;67.10
25616;DHT22;13482;48.234;13.006;2024-02-26T10:59:26;13.10;67.00
25616;DHT22;13482;48.234;13.006;2024-02-26T11:01:55;13.20;67.00
25616;DHT22;13482;48.234;13.006;2024-02-26T11:04:23;13.20;66.90
25616;DHT22;13482;48.234;13.006;2024-02-26T11:06:57;13.20;66.90
25616;DHT22;13482;48.234;13.006;2024-02-26T11:09:27;13.30;66.70
25616;DHT22;13482;48.234;13.006;2024-02-26T11:11:57;13.30;66.70
25616;DHT22;13482;48.234;13.006;2024-02-26T11:14:26;13.40;66.70
25616;DHT22;13482;48.234;13.006;2024-02-26T11:16:57;13.40;66.60
25616;DHT22;13482;48.234;13.006;2024-02-26T11:19:26;13.40;66.50
25616;DHT22;13482;48.234;13.006;2024-02-26T11:21:55;13.50;66.50
25616;DHT22;13482;48.234;13.006;2024-02-26T11:24:25;13.50;66.50
25616;DHT22;13482;48.234;13.006;2024-02-26T11:26:55;13.50;66.50
25616;DHT22;13482;48.234;13.006;2024-02-26T11:29:31;13.50;66.50
25616;DHT22;13482;48.234;13.006;2024-02-26T11:32:02;13.60;66.40
25616;DHT22;13482;48.234;13.006;2024-02-26T11:34:29;13.60;66.40
25616;DHT22;13482;48.234;13.006;2024-02-26T11:36:57;13.60;66.40
25616;DHT22;13482;48.234;13.006;2024-02-26T11:39:25;13.60;66.30
25616;DHT22;13482;48.234;13.006;2024-02-26T11:41:54;13.60;66.30
25616;DHT22;13482;48.234;13.006;2024-02-26T11:44:30;13.70;66.30
25616;DHT22;13482;48.234;13.006;2024-02-26T11:46:58;13.70;66.20
25616;DHT22;13482;48.234;13.006;2024-02-26T11:49:30;13.70;66.40
25616;DHT22;13482;48.234;13.006;2024-02-26T11:51:59;13.80;66.40
25616;DHT22;13482;48.234;13.006;2024-02-26T11:54:46;13.80;66.20
25616;DHT22;13482;48.234;13.006;2024-02-26T11:57:21;13.90;65.80
25616;DHT22;13482;48.234;13.006;2024-02-26T12:05:32;14.00;65.40
25616;DHT22;13482;48.234;13.006;2024-02-26T12:08:03;13.90;65.60
25616;DHT22;13482;48.234;13.006;2024-02-26T12:10:41;13.90;65.30
25616;DHT22;13482;48.234;13.006;2024-02-26T12:13:13;14.00;65.10
25616;DHT22;13482;48.234;13.006;2024-02-26T12:15:56;13.90;65.20
25616;DHT22;13482;48.234;13.006;2024-02-26T12:18:26;14.00;65.10
25616;DHT22;13482;48.234;13.006;2024-02-26T12:23:28;14.00;65.40
25616;DHT22;13482;48.234;13.006;2024-02-26T12:26:01;14.00;65.40
25616;DHT22;13482;48.234;13.006;2024-02-26T12:28:35;14.10;65.30
25616;DHT22;13482;48.234;13.006;2024-02-26T12:31:08;14.20;65.60
25616;DHT22;13482;48.234;13.006;2024-02-26T12:33:39;14.20;65.80
25616;DHT22;13482;48.234;13.006;2024-02-26T12:36:10;14.30;65.90
25616;DHT22;13482;48.234;13.006;2024-02-26T12:38:38;14.40;66.00
25616;DHT22;13482;48.234;13.006;2024-02-26T12:41:06;14.50;65.90
25616;DHT22;13482;48.234;13.006;2024-02-26T12:43:34;14.60;66.10
25616;DHT22;13482;48.234;13.006;2024-02-26T12:46:03;14.80;66.00
25616;DHT22;13482;48.234;13.006;2024-02-26T12:48:33;14.90;66.10
25616;DHT22;13482;48.234;13.006;2024-02-26T12:51:01;15.10;66.10
25616;DHT22;13482;48.234;13.006;2024-02-26T12:53:29;15.20;65.90
25616;DHT22;13482;48.234;13.006;2024-02-26T12:55:57;15.40;65.70
25616;DHT22;13482;48.234;13.006;2024-02-26T12:58:25;15.50;65.80
25616;DHT22;13482;48.234;13.006;2024-02-26T13:00:56;15.70;65.60
25616;DHT22;13482;48.234;13.006;2024-02-26T13:03:24;15.80;65.50
25616;DHT22;13482;48.234;13.006;2024-02-26T13:05:52;15.90;65.30
25616;DHT22;13482;48.234;13.006;2024-02-26T13:08:21;16.10;65.10
25616;DHT22;13482;48.234;13.006;2024-02-26T13:10:49;16.20;65.10
25616;DHT22;13482;48.234;13.006;2024-02-26T13:13:18;16.40;65.00
25616;DHT22;13482;48.234;13.006;2024-02-26T13:15:46;16.50;64.70
25616;DHT22;13482;48.234;13.006;2024-02-26T13:18:14;16.60;64.50
25616;DHT22;13482;48.234;13.006;2024-02-26T13:20:42;16.70;64.40
25616;DHT22;13482;48.234;13.006;2024-02-26T13:23:13;16.80;64.10
25616;DHT22;13482;48.234;13.006;2024-02-26T13:25:41;16.90;63.80
25616;DHT22;13482;48.234;13.006;2024-02-26T13:28:18;16.90;63.90
25616;DHT22;13482;48.234;13.006;2024-02-26T13:30:57;17.00;63.60
25616;DHT22;13482;48.234;13.006;2024-02-26T13:33:26;17.10;63.10
25616;DHT22;13482;48.234;13.006;2024-02-26T13:35:56;17.10;63.50
25616;DHT22;13482;48.234;13.006;2024-02-26T13:38:25;17.20;63.20
25616;DHT22;13482;48.234;13.006;2024-02-26T13:40:54;17.20;63.20
25616;DHT22;13482;48.234;13.006;2024-02-26T13:43:22;17.20;63.20
25616;DHT22;13482;48.234;13.006;2024-02-26T13:45:50;17.30;63.10
25616;DHT22;13482;48.234;13.006;2024-02-26T13:48:17;17.40;63.10
25616;DHT22;13482;48.234;13.006;2024-02-26T13:50:45;17.40;62.70
25616;DHT22;13482;48.234;13.006;2024-02-26T13:53:13;17.40;62.60
25616;DHT22;13482;48.234;13.006;2024-02-26T13:55:42;17.50;62.60
25616;DHT22;13482;48.234;13.006;2024-02-26T13:58:12;17.50;62.40
25616;DHT22;13482;48.234;13.006;2024-02-26T14:00:41;17.60;62.20
25616;DHT22;13482;48.234;13.006;2024-02-26T14:03:10;17.60;62.10
25616;DHT22;13482;48.234;13.006;2024-02-26T14:05:38;17.70;62.10
25616;DHT22;13482;48.234;13.006;2024-02-26T14:08:07;17.70;61.90
25616;DHT22;13482;48.234;13.006;2024-02-26T14:10:35;17.70;61.70
25616;DHT22;13482;48.234;13.006;2024-02-26T14:13:03;17.70;61.70
25616;DHT22;13482;48.234;13.006;2024-02-26T14:15:31;17.80;61.60
25616;DHT22;13482;48.234;13.006;2024-02-26T14:18:01;17.80;61.20
25616;DHT22;13482;48.234;13.006;2024-02-26T14:20:31;17.80;61.00
25616;DHT22;13482;48.234;13.006;2024-02-26T14:22:59;17.80;60.90
25616;DHT22;13482;48.234;13.006;2024-02-26T14:25:27;17.80;60.90
25616;DHT22;13482;48.234;13.006;2024-02-26T14:27:57;17.80;60.70
25616;DHT22;13482;48.234;13.006;2024-02-26T14:30:26;17.80;60.80
25616;DHT22;13482;48.234;13.006;2024-02-26T14:32:54;17.80;60.70
25616;DHT22;13482;48.234;13.006;2024-02-26T14:35:22;17.70;60.60
25616;DHT22;13482;48.234;13.006;2024-02-26T14:37:51;17.70;60.50
25616;DHT22;13482;48.234;13.006;2024-02-26T14:40:19;17.70;60.50
25616;DHT22;13482;48.234;13.006;2024-02-26T14:42:46;17.70;60.60
25616;DHT22;13482;48.234;13.006;2024-02-26T14:45:14;17.70;60.70
25616;DHT22;13482;48.234;13.006;2024-02-26T14:47:42;17.80;60.80
25616;DHT22;13482;48.234;13.006;2024-02-26T14:50:10;17.80;60.70
25616;DHT22;13482;48.234;13.006;2024-02-26T14:52:38;17.90;60.80
25616;DHT22;13482;48.234;13.006;2024-02-26T14:55:05;18.00;61.00
25616;DHT22;13482;48.234;13.006;2024-02-26T14:57:33;18.10;60.90
25616;DHT22;13482;48.234;13.006;2024-02-26T15:00:01;18.20;60.50
25616;DHT22;13482;48.234;13.006;2024-02-26T15:02:29;18.30;60.20
25616;DHT22;13482;48.234;13.006;2024-02-26T15:04:57;18.40;60.00
25616;DHT22;13482;48.234;13.006;2024-02-26T15:07:24;18.50;59.10
25616;DHT22;13482;48.234;13.006;2024-02-26T15:09:52;18.50;58.70
25616;DHT22;13482;48.234;13.006;2024-02-26T15:12:24;18.50;58.60
25616;DHT22;13482;48.234;13.006;2024-02-26T15:14:52;18.40;57.90
25616;DHT22;13482;48.234;13.006;2024-02-26T15:17:20;18.40;58.50
25616;DHT22;13482;48.234;13.006;2024-02-26T15:19:47;18.20;58.20
25616;DHT22;13482;48.234;13.006;2024-02-26T15:22:15;18.10;58.00
25616;DHT22;13482;48.234;13.006;2024-02-26T15:24:44;18.00;57.80
25616;DHT22;13482;48.234;13.006;2024-02-26T15:27:14;17.80;57.80
25616;DHT22;13482;48.234;13.006;2024-02-26T15:29:41;17.70;57.80
25616;DHT22;13482;48.234;13.006;2024-02-26T15:32:10;17.60;57.70
25616;DHT22;13482;48.234;13.006;2024-02-26T15:34:37;17.40;57.60
25616;DHT22;13482;48.234;13.006;2024-02-26T15:37:05;17.20;57.70
25616;DHT22;13482;48.234;13.006;2024-02-26T15:39:32;17.10;57.70
25616;DHT22;13482;48.234;13.006;2024-02-26T15:42:02;17.00;57.70